LAN285 SCEL-SCTE
Flight info
| Callsign | LAN285 |
|---|---|
| Flight time | 1h 24m |
| Altitude | 35000 |
| Route | ANGOD6C ANGOD UQ803 ERUKA DCT SARTO SARTO2A |
| Aircraft | A321/M-SDE3FGHIRWY/LB1 |
Departure
| Time | 2026-04-25 15:55 |
|---|---|
| Airport | Comodoro Arturo Merino Benítez International Airport (SCEL) |
Arrival
| Time | 2026-04-25 17:19 |
|---|---|
| Airport | El Tepual International Airport (SCTE) |
| Time | Latitude | Longitude | Altitude | Speed | Heading |
|---|---|---|---|---|---|
| 2026-04-25 15:40 | -33.39608 | -70.79805 | 1565 ft | 0 kts | 176° |
| 2026-04-25 15:45 | -33.39601 | -70.79805 | 1565 ft | 2 kts | 179° |
| 2026-04-25 15:45 | -33.39581 | -70.79804 | 1565 ft | 3 kts | 192° |
| 2026-04-25 15:45 | -33.39574 | -70.79802 | 1565 ft | 3 kts | 197° |
| 2026-04-25 15:46 | -33.39545 | -70.79785 | 1565 ft | 3 kts | 221° |
| 2026-04-25 15:46 | -33.39531 | -70.79768 | 1565 ft | 3 kts | 240° |
| 2026-04-25 15:46 | -33.39524 | -70.79750 | 1565 ft | 1 kts | 266° |
| 2026-04-25 15:46 | -33.39524 | -70.79747 | 1565 ft | 0 kts | 268° |
| 2026-04-25 15:48 | -33.39524 | -70.79752 | 1565 ft | 4 kts | 268° |
| 2026-04-25 15:49 | -33.39527 | -70.79843 | 1565 ft | 14 kts | 268° |
| 2026-04-25 15:49 | -33.39530 | -70.79954 | 1565 ft | 12 kts | 270° |
| 2026-04-25 15:49 | -33.39504 | -70.80040 | 1566 ft | 12 kts | 327° |
| 2026-04-25 15:49 | -33.39390 | -70.80052 | 1566 ft | 19 kts | 358° |
| 2026-04-25 15:50 | -33.39261 | -70.80058 | 1566 ft | 18 kts | 357° |
| 2026-04-25 15:50 | -33.39142 | -70.80065 | 1566 ft | 16 kts | 357° |
| 2026-04-25 15:50 | -33.39031 | -70.80071 | 1567 ft | 17 kts | 358° |
| 2026-04-25 15:50 | -33.38888 | -70.80079 | 1567 ft | 24 kts | 357° |
| 2026-04-25 15:51 | -33.38702 | -70.80089 | 1567 ft | 28 kts | 358° |
| 2026-04-25 15:51 | -33.38640 | -70.80092 | 1567 ft | 27 kts | 357° |
| 2026-04-25 15:51 | -33.38340 | -70.80109 | 1566 ft | 25 kts | 358° |
| 2026-04-25 15:51 | -33.38170 | -70.80118 | 1566 ft | 24 kts | 357° |
| 2026-04-25 15:52 | -33.38010 | -70.80126 | 1566 ft | 23 kts | 358° |
| 2026-04-25 15:52 | -33.37857 | -70.80134 | 1566 ft | 21 kts | 358° |
| 2026-04-25 15:52 | -33.37716 | -70.80141 | 1566 ft | 19 kts | 357° |
| 2026-04-25 15:52 | -33.37586 | -70.80148 | 1566 ft | 18 kts | 358° |
| 2026-04-25 15:53 | -33.37465 | -70.80154 | 1566 ft | 17 kts | 357° |
| 2026-04-25 15:53 | -33.37351 | -70.80160 | 1567 ft | 16 kts | 358° |
| 2026-04-25 15:53 | -33.37239 | -70.80167 | 1567 ft | 19 kts | 356° |
| 2026-04-25 15:53 | -33.37121 | -70.80213 | 1568 ft | 16 kts | 304° |
| 2026-04-25 15:54 | -33.37113 | -70.80321 | 1574 ft | 10 kts | 249° |
| 2026-04-25 15:54 | -33.37174 | -70.80373 | 1574 ft | 15 kts | 189° |
| 2026-04-25 15:54 | -33.37378 | -70.80364 | 1574 ft | 58 kts | 177° |
| 2026-04-25 15:54 | -33.37995 | -70.80331 | 1572 ft | 117 kts | 177° |
| 2026-04-25 15:55 | -33.38972 | -70.80279 | 1574 ft | 162 kts | 177° |
| 2026-04-25 15:55 | -33.40202 | -70.80212 | 1738 ft | 184 kts | 177° |
| 2026-04-25 15:55 | -33.41467 | -70.80137 | 2397 ft | 181 kts | 178° |
| 2026-04-25 15:55 | -33.42724 | -70.80068 | 2954 ft | 184 kts | 178° |
| 2026-04-25 15:56 | -33.44071 | -70.79998 | 3128 ft | 203 kts | 178° |
| 2026-04-25 15:56 | -33.45558 | -70.79921 | 3243 ft | 226 kts | 178° |
| 2026-04-25 15:56 | -33.47215 | -70.79832 | 3458 ft | 251 kts | 178° |
| 2026-04-25 15:56 | -33.49000 | -70.79737 | 4069 ft | 259 kts | 178° |
| 2026-04-25 15:57 | -33.50817 | -70.79641 | 4838 ft | 264 kts | 178° |
| 2026-04-25 15:57 | -33.52668 | -70.79541 | 5626 ft | 268 kts | 177° |
| 2026-04-25 15:57 | -33.54542 | -70.79439 | 6383 ft | 272 kts | 177° |
| 2026-04-25 15:57 | -33.56449 | -70.79336 | 7077 ft | 276 kts | 177° |
| 2026-04-25 15:58 | -33.58375 | -70.79242 | 7784 ft | 279 kts | 180° |
| 2026-04-25 15:58 | -33.60298 | -70.79595 | 8471 ft | 282 kts | 194° |
| 2026-04-25 15:58 | -33.62199 | -70.80186 | 9203 ft | 283 kts | 194° |
| 2026-04-25 15:58 | -33.64115 | -70.80783 | 9933 ft | 285 kts | 195° |
| 2026-04-25 15:59 | -33.66068 | -70.81396 | 10360 ft | 299 kts | 195° |
| 2026-04-25 15:59 | -33.68154 | -70.82051 | 10490 ft | 321 kts | 195° |
| 2026-04-25 15:59 | -33.70370 | -70.82744 | 10600 ft | 342 kts | 195° |
| 2026-04-25 15:59 | -33.72729 | -70.83480 | 10875 ft | 357 kts | 195° |
| 2026-04-25 16:00 | -33.75152 | -70.84234 | 11459 ft | 361 kts | 195° |
| 2026-04-25 16:00 | -33.75974 | -70.84489 | 11681 ft | 362 kts | 195° |
| 2026-04-25 16:00 | -33.79243 | -70.85507 | 12591 ft | 363 kts | 195° |
| 2026-04-25 16:00 | -33.81694 | -70.86273 | 13294 ft | 365 kts | 195° |
| 2026-04-25 16:01 | -33.84951 | -70.87291 | 14180 ft | 366 kts | 195° |
| 2026-04-25 16:01 | -33.86514 | -70.87780 | 14549 ft | 367 kts | 195° |
| 2026-04-25 16:01 | -33.89003 | -70.88557 | 15150 ft | 368 kts | 195° |
| 2026-04-25 16:01 | -33.91489 | -70.89332 | 15742 ft | 369 kts | 195° |
| 2026-04-25 16:02 | -33.93979 | -70.90108 | 16302 ft | 371 kts | 195° |
| 2026-04-25 16:02 | -33.96481 | -70.90889 | 16812 ft | 372 kts | 195° |
| 2026-04-25 16:02 | -33.98996 | -70.91677 | 17340 ft | 375 kts | 195° |
| 2026-04-25 16:02 | -34.01523 | -70.92471 | 17899 ft | 376 kts | 195° |
| 2026-04-25 16:03 | -34.04067 | -70.93229 | 18470 ft | 378 kts | 194° |
| 2026-04-25 16:03 | -34.06639 | -70.93937 | 18935 ft | 379 kts | 194° |
| 2026-04-25 16:03 | -34.09234 | -70.94621 | 19361 ft | 381 kts | 193° |
| 2026-04-25 16:03 | -34.11834 | -70.95297 | 19810 ft | 383 kts | 194° |
| 2026-04-25 16:04 | -34.14439 | -70.95979 | 20299 ft | 384 kts | 194° |
| 2026-04-25 16:04 | -34.17051 | -70.96675 | 20757 ft | 385 kts | 194° |
| 2026-04-25 16:04 | -34.19671 | -70.97383 | 21221 ft | 387 kts | 195° |
| 2026-04-25 16:04 | -34.22303 | -70.98102 | 21695 ft | 388 kts | 195° |
| 2026-04-25 16:05 | -34.24947 | -70.98830 | 22161 ft | 390 kts | 195° |
| 2026-04-25 16:05 | -34.27595 | -70.99560 | 22631 ft | 391 kts | 195° |
| 2026-04-25 16:05 | -34.32917 | -71.01019 | 23506 ft | 394 kts | 195° |
| 2026-04-25 16:06 | -34.35559 | -71.01738 | 23910 ft | 395 kts | 195° |
| 2026-04-25 16:06 | -34.38250 | -71.02470 | 24262 ft | 397 kts | 196° |
| 2026-04-25 16:06 | -34.40952 | -71.03208 | 24588 ft | 399 kts | 196° |
| 2026-04-25 16:06 | -34.43666 | -71.03950 | 24883 ft | 401 kts | 196° |
| 2026-04-25 16:07 | -34.46399 | -71.04700 | 25217 ft | 403 kts | 197° |
| 2026-04-25 16:07 | -34.48254 | -71.05211 | 25437 ft | 404 kts | 197° |
| 2026-04-25 16:07 | -34.51901 | -71.06215 | 25861 ft | 407 kts | 197° |
| 2026-04-25 16:07 | -34.54671 | -71.06976 | 26163 ft | 409 kts | 197° |
| 2026-04-25 16:08 | -34.57451 | -71.07741 | 26432 ft | 411 kts | 197° |
| 2026-04-25 16:08 | -34.60244 | -71.08512 | 26753 ft | 413 kts | 197° |
| 2026-04-25 16:08 | -34.63049 | -71.09283 | 27054 ft | 414 kts | 197° |
| 2026-04-25 16:08 | -34.65869 | -71.10060 | 27351 ft | 416 kts | 197° |
| 2026-04-25 16:09 | -34.68699 | -71.10838 | 27636 ft | 418 kts | 197° |
| 2026-04-25 16:09 | -34.71545 | -71.11621 | 27926 ft | 420 kts | 197° |
| 2026-04-25 16:09 | -34.74407 | -71.12400 | 28221 ft | 422 kts | 197° |
| 2026-04-25 16:09 | -34.77288 | -71.13130 | 28554 ft | 424 kts | 196° |
| 2026-04-25 16:10 | -34.80181 | -71.13823 | 28987 ft | 422 kts | 195° |
| 2026-04-25 16:10 | -34.83056 | -71.14495 | 29399 ft | 420 kts | 195° |
| 2026-04-25 16:10 | -34.85925 | -71.15163 | 29784 ft | 419 kts | 195° |
| 2026-04-25 16:10 | -34.88783 | -71.15836 | 30167 ft | 418 kts | 196° |
| 2026-04-25 16:11 | -34.91634 | -71.16518 | 30502 ft | 417 kts | 196° |
| 2026-04-25 16:11 | -34.94478 | -71.17212 | 30810 ft | 416 kts | 197° |
| 2026-04-25 16:11 | -34.97313 | -71.17910 | 31118 ft | 416 kts | 197° |
| 2026-04-25 16:11 | -35.00147 | -71.18608 | 31427 ft | 415 kts | 197° |
| 2026-04-25 16:12 | -35.02971 | -71.19301 | 31739 ft | 414 kts | 197° |
| 2026-04-25 16:12 | -35.05799 | -71.19989 | 32038 ft | 414 kts | 197° |
| 2026-04-25 16:12 | -35.08586 | -71.20667 | 32340 ft | 413 kts | 197° |
| 2026-04-25 16:12 | -35.10490 | -71.21130 | 32546 ft | 413 kts | 198° |
| 2026-04-25 16:13 | -35.14254 | -71.22050 | 32956 ft | 412 kts | 198° |
| 2026-04-25 16:13 | -35.17021 | -71.22729 | 33252 ft | 411 kts | 198° |
| 2026-04-25 16:13 | -35.19829 | -71.23418 | 33556 ft | 411 kts | 198° |
| 2026-04-25 16:13 | -35.22631 | -71.24105 | 33854 ft | 410 kts | 198° |
| 2026-04-25 16:14 | -35.25424 | -71.24790 | 34141 ft | 409 kts | 199° |
| 2026-04-25 16:14 | -35.28218 | -71.25477 | 34448 ft | 409 kts | 199° |
| 2026-04-25 16:14 | -35.31008 | -71.26164 | 34685 ft | 408 kts | 199° |
| 2026-04-25 16:14 | -35.33793 | -71.26849 | 34902 ft | 408 kts | 199° |
| 2026-04-25 16:15 | -35.36581 | -71.27535 | 35112 ft | 409 kts | 199° |
| 2026-04-25 16:15 | -35.39373 | -71.28223 | 35237 ft | 409 kts | 199° |
| 2026-04-25 16:15 | -35.42157 | -71.28909 | 35267 ft | 408 kts | 199° |
| 2026-04-25 16:16 | -35.47715 | -71.30281 | 35274 ft | 407 kts | 199° |
| 2026-04-25 16:16 | -35.53222 | -71.31645 | 35286 ft | 406 kts | 199° |
| 2026-04-25 16:17 | -35.58797 | -71.33022 | 35274 ft | 406 kts | 199° |
| 2026-04-25 16:17 | -35.64295 | -71.34379 | 35277 ft | 406 kts | 199° |
| 2026-04-25 16:18 | -35.69834 | -71.35758 | 35270 ft | 405 kts | 199° |
| 2026-04-25 16:18 | -35.75366 | -71.37137 | 35269 ft | 406 kts | 199° |
| 2026-04-25 16:19 | -35.80902 | -71.38512 | 35281 ft | 405 kts | 199° |
| 2026-04-25 16:19 | -35.86436 | -71.39896 | 35277 ft | 406 kts | 199° |
| 2026-04-25 16:20 | -35.94751 | -71.41982 | 35272 ft | 406 kts | 199° |
| 2026-04-25 16:21 | -36.03100 | -71.44076 | 35257 ft | 411 kts | 199° |
| 2026-04-25 16:21 | -36.08725 | -71.45488 | 35239 ft | 413 kts | 199° |
| 2026-04-25 16:22 | -36.14381 | -71.46901 | 35237 ft | 415 kts | 199° |
| 2026-04-25 16:22 | -36.20008 | -71.48317 | 35233 ft | 416 kts | 198° |
| 2026-04-25 16:23 | -36.25680 | -71.49743 | 35260 ft | 416 kts | 199° |
| 2026-04-25 16:23 | -36.31372 | -71.51182 | 35256 ft | 416 kts | 199° |
| 2026-04-25 16:24 | -36.37052 | -71.52620 | 35252 ft | 417 kts | 199° |
| 2026-04-25 16:24 | -36.42742 | -71.54059 | 35251 ft | 417 kts | 199° |
| 2026-04-25 16:25 | -36.48429 | -71.55501 | 35247 ft | 417 kts | 199° |
| 2026-04-25 16:25 | -36.54082 | -71.56941 | 35279 ft | 417 kts | 198° |
| 2026-04-25 16:26 | -36.59762 | -71.58381 | 35271 ft | 416 kts | 198° |
| 2026-04-25 16:26 | -36.65439 | -71.59827 | 35261 ft | 416 kts | 198° |
| 2026-04-25 16:27 | -36.71118 | -71.61290 | 35261 ft | 416 kts | 198° |
| 2026-04-25 16:27 | -36.76799 | -71.62747 | 35279 ft | 417 kts | 198° |
| 2026-04-25 16:28 | -36.82477 | -71.64198 | 35269 ft | 416 kts | 198° |
| 2026-04-25 16:28 | -36.88145 | -71.65642 | 35262 ft | 415 kts | 198° |
| 2026-04-25 16:29 | -36.93805 | -71.67087 | 35255 ft | 415 kts | 198° |
| 2026-04-25 16:29 | -36.99465 | -71.68547 | 35281 ft | 415 kts | 198° |
| 2026-04-25 16:30 | -37.05069 | -71.69990 | 35252 ft | 413 kts | 198° |
| 2026-04-25 16:30 | -37.10694 | -71.71441 | 35269 ft | 413 kts | 198° |
| 2026-04-25 16:31 | -37.16318 | -71.72889 | 35270 ft | 413 kts | 198° |
| 2026-04-25 16:31 | -37.21949 | -71.74347 | 35264 ft | 413 kts | 198° |
| 2026-04-25 16:32 | -37.27576 | -71.75804 | 35291 ft | 413 kts | 198° |
| 2026-04-25 16:32 | -37.33206 | -71.77270 | 35281 ft | 413 kts | 198° |
| 2026-04-25 16:33 | -37.38823 | -71.78735 | 35274 ft | 412 kts | 198° |
| 2026-04-25 16:33 | -37.44448 | -71.80200 | 35276 ft | 412 kts | 198° |
| 2026-04-25 16:34 | -37.50074 | -71.81667 | 35278 ft | 413 kts | 198° |
| 2026-04-25 16:34 | -37.55704 | -71.83128 | 35279 ft | 413 kts | 198° |
| 2026-04-25 16:35 | -37.61292 | -71.84586 | 35292 ft | 413 kts | 198° |
| 2026-04-25 16:35 | -37.66914 | -71.86061 | 35292 ft | 413 kts | 198° |
| 2026-04-25 16:36 | -37.72538 | -71.87541 | 35329 ft | 412 kts | 199° |
| 2026-04-25 16:36 | -37.78106 | -71.89210 | 35318 ft | 410 kts | 200° |
| 2026-04-25 16:37 | -37.83633 | -71.90996 | 35294 ft | 410 kts | 200° |
| 2026-04-25 16:37 | -37.89162 | -71.92759 | 35297 ft | 410 kts | 200° |
| 2026-04-25 16:38 | -37.94700 | -71.94494 | 35326 ft | 409 kts | 200° |
| 2026-04-25 16:38 | -38.00193 | -71.96203 | 35315 ft | 409 kts | 200° |
| 2026-04-25 16:39 | -38.05718 | -71.97927 | 35327 ft | 409 kts | 200° |
| 2026-04-25 16:39 | -38.11247 | -71.99666 | 35329 ft | 409 kts | 200° |
| 2026-04-25 16:40 | -38.16768 | -72.01407 | 35328 ft | 408 kts | 200° |
| 2026-04-25 16:40 | -38.22288 | -72.03138 | 35350 ft | 408 kts | 200° |
| 2026-04-25 16:41 | -38.27804 | -72.04879 | 35351 ft | 408 kts | 200° |
| 2026-04-25 16:41 | -38.36072 | -72.07501 | 35343 ft | 408 kts | 200° |
| 2026-04-25 16:42 | -38.41581 | -72.09244 | 35371 ft | 408 kts | 200° |
| 2026-04-25 16:42 | -38.47078 | -72.10985 | 35332 ft | 406 kts | 200° |
| 2026-04-25 16:43 | -38.52568 | -72.12731 | 35347 ft | 406 kts | 200° |
| 2026-04-25 16:43 | -38.58026 | -72.14472 | 35347 ft | 406 kts | 200° |
| 2026-04-25 16:44 | -38.63518 | -72.16222 | 35349 ft | 407 kts | 200° |
| 2026-04-25 16:44 | -38.69005 | -72.17974 | 35370 ft | 406 kts | 200° |
| 2026-04-25 16:45 | -38.74490 | -72.19736 | 35362 ft | 406 kts | 200° |
| 2026-04-25 16:45 | -38.79978 | -72.21498 | 35357 ft | 406 kts | 200° |
| 2026-04-25 16:46 | -38.85457 | -72.23263 | 35356 ft | 406 kts | 200° |
| 2026-04-25 16:46 | -38.89126 | -72.24444 | 35378 ft | 406 kts | 200° |
| 2026-04-25 16:47 | -38.95496 | -72.26489 | 35355 ft | 406 kts | 200° |
| 2026-04-25 16:47 | -39.00983 | -72.28255 | 35350 ft | 406 kts | 200° |
| 2026-04-25 16:48 | -39.06461 | -72.30019 | 35347 ft | 406 kts | 200° |
| 2026-04-25 16:48 | -39.11945 | -72.31796 | 35370 ft | 406 kts | 200° |
| 2026-04-25 16:49 | -39.17423 | -72.33573 | 35357 ft | 406 kts | 200° |
| 2026-04-25 16:49 | -39.22906 | -72.35342 | 35350 ft | 406 kts | 200° |
| 2026-04-25 16:50 | -39.28382 | -72.37116 | 35349 ft | 406 kts | 200° |
| 2026-04-25 16:50 | -39.33855 | -72.38895 | 35343 ft | 406 kts | 200° |
| 2026-04-25 16:51 | -39.39330 | -72.40678 | 35362 ft | 406 kts | 200° |
| 2026-04-25 16:51 | -39.43876 | -72.42165 | 35342 ft | 406 kts | 200° |
| 2026-04-25 16:52 | -39.50271 | -72.44259 | 35346 ft | 406 kts | 200° |
| 2026-04-25 16:52 | -39.55743 | -72.46051 | 35340 ft | 406 kts | 200° |
| 2026-04-25 16:53 | -39.63917 | -72.48725 | 35363 ft | 406 kts | 200° |
| 2026-04-25 16:54 | -39.69393 | -72.50520 | 35358 ft | 405 kts | 200° |
| 2026-04-25 16:54 | -39.74858 | -72.52329 | 35351 ft | 405 kts | 200° |
| 2026-04-25 16:55 | -39.80328 | -72.54115 | 35339 ft | 405 kts | 199° |
| 2026-04-25 16:55 | -39.85806 | -72.55864 | 35337 ft | 405 kts | 199° |
| 2026-04-25 16:56 | -39.91284 | -72.57620 | 35336 ft | 405 kts | 199° |
| 2026-04-25 16:56 | -39.96757 | -72.59389 | 35332 ft | 405 kts | 200° |
| 2026-04-25 16:57 | -40.02219 | -72.61167 | 35327 ft | 404 kts | 200° |
| 2026-04-25 16:57 | -40.07674 | -72.62936 | 35352 ft | 403 kts | 200° |
| 2026-04-25 16:58 | -40.13112 | -72.64700 | 35349 ft | 402 kts | 200° |
| 2026-04-25 16:58 | -40.18498 | -72.66447 | 35344 ft | 401 kts | 200° |
| 2026-04-25 16:59 | -40.23910 | -72.68211 | 35339 ft | 401 kts | 200° |
| 2026-04-25 16:59 | -40.29308 | -72.69981 | 35292 ft | 400 kts | 200° |
| 2026-04-25 16:59 | -40.32030 | -72.70877 | 34550 ft | 404 kts | 200° |
| 2026-04-25 17:00 | -40.34720 | -72.71756 | 33729 ft | 395 kts | 200° |
| 2026-04-25 17:00 | -40.37374 | -72.72623 | 32601 ft | 393 kts | 200° |
| 2026-04-25 17:00 | -40.40029 | -72.73491 | 31379 ft | 393 kts | 200° |
| 2026-04-25 17:00 | -40.42692 | -72.74366 | 30071 ft | 395 kts | 200° |
| 2026-04-25 17:01 | -40.45362 | -72.75245 | 28550 ft | 398 kts | 200° |
| 2026-04-25 17:01 | -40.48065 | -72.76135 | 26939 ft | 403 kts | 200° |
| 2026-04-25 17:01 | -40.50796 | -72.77036 | 25624 ft | 404 kts | 200° |
| 2026-04-25 17:01 | -40.53519 | -72.77931 | 25242 ft | 405 kts | 200° |
| 2026-04-25 17:02 | -40.56269 | -72.78837 | 24883 ft | 407 kts | 200° |
| 2026-04-25 17:02 | -40.59009 | -72.79739 | 24324 ft | 406 kts | 199° |
| 2026-04-25 17:02 | -40.61736 | -72.80637 | 23715 ft | 402 kts | 199° |
| 2026-04-25 17:02 | -40.63530 | -72.81226 | 23303 ft | 400 kts | 199° |
| 2026-04-25 17:03 | -40.67104 | -72.82406 | 22584 ft | 398 kts | 199° |
| 2026-04-25 17:03 | -40.69781 | -72.83295 | 22074 ft | 395 kts | 200° |
| 2026-04-25 17:03 | -40.72436 | -72.84180 | 21529 ft | 392 kts | 200° |
| 2026-04-25 17:03 | -40.75074 | -72.85057 | 21019 ft | 390 kts | 200° |
| 2026-04-25 17:04 | -40.77701 | -72.85927 | 20531 ft | 388 kts | 199° |
| 2026-04-25 17:04 | -40.80317 | -72.86793 | 20045 ft | 387 kts | 199° |
| 2026-04-25 17:04 | -40.82923 | -72.87655 | 19577 ft | 385 kts | 199° |
| 2026-04-25 17:04 | -40.85517 | -72.88515 | 19116 ft | 384 kts | 199° |
| 2026-04-25 17:05 | -40.88105 | -72.89376 | 18683 ft | 382 kts | 199° |
| 2026-04-25 17:05 | -40.93245 | -72.91088 | 17696 ft | 378 kts | 199° |
| 2026-04-25 17:05 | -40.95831 | -72.91721 | 17208 ft | 381 kts | 192° |
| 2026-04-25 17:06 | -40.98462 | -72.92051 | 16694 ft | 378 kts | 192° |
| 2026-04-25 17:06 | -41.01073 | -72.92373 | 16200 ft | 376 kts | 191° |
| 2026-04-25 17:06 | -41.03665 | -72.92690 | 15680 ft | 373 kts | 191° |
| 2026-04-25 17:06 | -41.06251 | -72.93010 | 15169 ft | 371 kts | 191° |
| 2026-04-25 17:07 | -41.08800 | -72.93327 | 14635 ft | 366 kts | 191° |
| 2026-04-25 17:07 | -41.11317 | -72.93638 | 14107 ft | 361 kts | 191° |
| 2026-04-25 17:07 | -41.13770 | -72.93944 | 13541 ft | 356 kts | 191° |
| 2026-04-25 17:07 | -41.16249 | -72.94252 | 12984 ft | 351 kts | 191° |
| 2026-04-25 17:08 | -41.18667 | -72.94553 | 12440 ft | 346 kts | 191° |
| 2026-04-25 17:08 | -41.21058 | -72.94851 | 11899 ft | 344 kts | 191° |
| 2026-04-25 17:08 | -41.23435 | -72.95149 | 11343 ft | 342 kts | 191° |
| 2026-04-25 17:08 | -41.25778 | -72.95437 | 11077 ft | 332 kts | 191° |
| 2026-04-25 17:09 | -41.28004 | -72.95637 | 10950 ft | 319 kts | 189° |
| 2026-04-25 17:09 | -41.30174 | -72.95730 | 10827 ft | 306 kts | 187° |
| 2026-04-25 17:09 | -41.32259 | -72.95773 | 10705 ft | 294 kts | 187° |
| 2026-04-25 17:09 | -41.34261 | -72.95801 | 10595 ft | 279 kts | 188° |
| 2026-04-25 17:10 | -41.36161 | -72.95833 | 10316 ft | 270 kts | 189° |
| 2026-04-25 17:10 | -41.38017 | -72.95879 | 10132 ft | 265 kts | 189° |
| 2026-04-25 17:10 | -41.39866 | -72.95939 | 9995 ft | 265 kts | 189° |
| 2026-04-25 17:10 | -41.41720 | -72.96008 | 9517 ft | 270 kts | 189° |
| 2026-04-25 17:11 | -41.43591 | -72.96081 | 9082 ft | 269 kts | 189° |
| 2026-04-25 17:11 | -41.45472 | -72.96150 | 8670 ft | 269 kts | 189° |
| 2026-04-25 17:11 | -41.47359 | -72.96218 | 8130 ft | 271 kts | 189° |
| 2026-04-25 17:11 | -41.49227 | -72.96280 | 7664 ft | 266 kts | 189° |
| 2026-04-25 17:12 | -41.51090 | -72.96341 | 7039 ft | 270 kts | 189° |
| 2026-04-25 17:12 | -41.52958 | -72.96403 | 6530 ft | 269 kts | 189° |
| 2026-04-25 17:12 | -41.54822 | -72.96464 | 6010 ft | 268 kts | 189° |
| 2026-04-25 17:12 | -41.56687 | -72.96527 | 5462 ft | 268 kts | 189° |
| 2026-04-25 17:13 | -41.58525 | -72.96686 | 4958 ft | 258 kts | 201° |
| 2026-04-25 17:13 | -41.59081 | -72.96894 | 4789 ft | 252 kts | 208° |
| 2026-04-25 17:13 | -41.61210 | -72.99194 | 4042 ft | 229 kts | 244° |
| 2026-04-25 17:13 | -41.61749 | -73.01070 | 3949 ft | 205 kts | 262° |
| 2026-04-25 17:14 | -41.61809 | -73.02868 | 3911 ft | 184 kts | 272° |
| 2026-04-25 17:14 | -41.61774 | -73.04503 | 3831 ft | 167 kts | 272° |
| 2026-04-25 17:14 | -41.61746 | -73.05962 | 3773 ft | 154 kts | 272° |
| 2026-04-25 17:14 | -41.61674 | -73.07371 | 3689 ft | 152 kts | 282° |
| 2026-04-25 17:15 | -41.61237 | -73.08649 | 3627 ft | 154 kts | 301° |
| 2026-04-25 17:15 | -41.60411 | -73.09597 | 3458 ft | 162 kts | 323° |
| 2026-04-25 17:15 | -41.59279 | -73.09954 | 3176 ft | 175 kts | 349° |
| 2026-04-25 17:15 | -41.58057 | -73.09909 | 2950 ft | 176 kts | 351° |
| 2026-04-25 17:16 | -41.56864 | -73.09856 | 2721 ft | 160 kts | 351° |
| 2026-04-25 17:16 | -41.55815 | -73.09813 | 2499 ft | 144 kts | 352° |
| 2026-04-25 17:16 | -41.54834 | -73.09780 | 2303 ft | 139 kts | 353° |
| 2026-04-25 17:16 | -41.53869 | -73.09748 | 2128 ft | 138 kts | 353° |
| 2026-04-25 17:17 | -41.52910 | -73.09715 | 1931 ft | 138 kts | 354° |
| 2026-04-25 17:17 | -41.51950 | -73.09682 | 1744 ft | 138 kts | 356° |
| 2026-04-25 17:17 | -41.50990 | -73.09648 | 1550 ft | 138 kts | 356° |
| 2026-04-25 17:17 | -41.50033 | -73.09614 | 1359 ft | 137 kts | 357° |
| 2026-04-25 17:18 | -41.49078 | -73.09580 | 1170 ft | 137 kts | 358° |
| 2026-04-25 17:18 | -41.48124 | -73.09546 | 955 ft | 139 kts | 1° |
| 2026-04-25 17:18 | -41.47156 | -73.09512 | 753 ft | 139 kts | 2° |
| 2026-04-25 17:18 | -41.46197 | -73.09485 | 570 ft | 137 kts | 1° |
| 2026-04-25 17:19 | -41.45241 | -73.09447 | 387 ft | 138 kts | 2° |
| 2026-04-25 17:19 | -41.44301 | -73.09412 | 300 ft | 127 kts | 2° |
| 2026-04-25 17:19 | -41.43559 | -73.09387 | 303 ft | 71 kts | 1° |
| 2026-04-25 17:19 | -41.43228 | -73.09373 | 305 ft | 39 kts | 2° |
| 2026-04-25 17:20 | -41.42982 | -73.09364 | 309 ft | 33 kts | 1° |
| 2026-04-25 17:20 | -41.42774 | -73.09358 | 306 ft | 23 kts | 360° |
| 2026-04-25 17:20 | -41.42712 | -73.09473 | 306 ft | 20 kts | 274° |
| 2026-04-25 17:20 | -41.42785 | -73.09573 | 303 ft | 23 kts | 183° |
| 2026-04-25 17:21 | -41.42994 | -73.09582 | 303 ft | 35 kts | 181° |
| 2026-04-25 17:21 | -41.43213 | -73.09591 | 301 ft | 15 kts | 182° |
| 2026-04-25 17:21 | -41.43260 | -73.09636 | 303 ft | 7 kts | 263° |
| 2026-04-25 17:21 | -41.43258 | -73.09707 | 305 ft | 5 kts | 272° |
| 2026-04-25 17:22 | -41.43258 | -73.09723 | 303 ft | 0 kts | 272° |